Time;durP1;ratioP1;P1;durP2;ratioP2;P2;SDS_P1;SDS_P2;PMS_P1;PMS_P2;Temp;Humidity;BMP_temperature;BMP_pressure;BME280_temperature;BME280_humidity;BME280_pressure;Samples;Min_cycle;Max_cycle;Signal;HPM_P1;HPM_P2
2022/05/05 00:02:15;;;;;;;19.92;14.98;;;;;;;7.53;66.03;97421.67;1675116;85;25979;-76
2022/05/05 00:04:42;;;;;;;23.40;14.63;;;;;;;7.51;66.06;97425.89;1674856;85;25782;-76
2022/05/05 00:07:08;;;;;;;26.73;14.73;;;;;;;7.44;66.24;97419.63;1674908;85;27402;-76
2022/05/05 00:09:36;;;;;;;18.48;14.13;;;;;;;7.42;66.24;97425.70;1674875;85;25881;-75
2022/05/05 00:14:48;;;;;;;28.25;18.45;;;;;;;7.41;66.38;97429.41;1674577;85;26672;-76
2022/05/05 00:17:15;;;;;;;33.02;18.87;;;;;;;7.44;66.46;97420.98;1674913;85;26342;-75
2022/05/05 00:19:42;;;;;;;31.93;19.87;;;;;;;7.47;66.54;97425.98;1674878;85;27545;-77
2022/05/05 00:22:11;;;;;;;32.98;19.70;;;;;;;7.48;66.57;97430.33;1674806;85;25769;-75
2022/05/05 00:24:38;;;;;;;29.67;17.32;;;;;;;7.47;66.63;97431.34;1674677;85;25268;-76
2022/05/05 00:27:07;;;;;;;26.77;16.73;;;;;;;7.47;66.51;97424.63;1674914;85;25983;-77
2022/05/05 00:29:34;;;;;;;28.55;18.50;;;;;;;7.45;66.43;97426.67;1674777;85;25803;-75
2022/05/05 00:32:01;;;;;;;28.20;17.60;;;;;;;7.43;66.43;97423.34;1674912;85;28044;-76
2022/05/05 00:34:28;;;;;;;24.85;17.35;;;;;;;7.41;66.50;97422.70;1674661;85;25232;-76
2022/05/05 00:36:54;;;;;;;23.38;16.62;;;;;;;7.42;66.59;97423.53;1674660;85;25813;-75
2022/05/05 00:39:21;;;;;;;27.87;18.10;;;;;;;7.39;66.62;97419.36;1674821;85;26027;-76
2022/05/05 00:41:48;;;;;;;23.57;16.05;;;;;;;7.31;66.75;97414.12;1674918;85;25648;-75
2022/05/05 00:44:15;;;;;;;20.72;14.85;;;;;;;7.30;66.85;97417.83;1674903;85;27382;-76
2022/05/05 00:46:51;;;;;;;20.02;15.40;;;;;;;7.27;66.92;97420.05;1674637;85;25706;-76
2022/05/05 00:49:19;;;;;;;18.07;13.75;;;;;;;7.28;67.03;97425.23;1585993;90;25997;-76
2022/05/05 00:51:46;;;;;;;22.85;15.18;;;;;;;7.29;67.01;97427.41;1586089;90;26090;-76
2022/05/05 00:54:12;;;;;;;21.95;14.80;;;;;;;7.29;67.03;97425.56;1586181;90;25968;-76
2022/05/05 00:56:41;;;;;;;20.52;14.43;;;;;;;7.23;67.03;97436.56;1586287;90;28045;-75
2022/05/05 00:59:09;;;;;;;20.90;14.65;;;;;;;7.17;67.03;97443.19;1585996;90;25761;-76
2022/05/05 01:01:35;;;;;;;18.77;13.48;;;;;;;7.10;67.05;97436.41;1586040;90;25335;-76
2022/05/05 01:04:05;;;;;;;20.95;13.93;;;;;;;7.06;67.13;97433.77;1585752;90;26223;-76
2022/05/05 01:06:33;;;;;;;20.05;14.23;;;;;;;7.03;67.18;97438.17;1586141;90;25858;-75
2022/05/05 01:09:00;;;;;;;20.88;15.10;;;;;;;7.01;67.23;97429.98;1586237;90;28114;-76
2022/05/05 01:11:28;;;;;;;25.08;15.85;;;;;;;6.99;67.35;97426.67;1586214;90;25832;-76
2022/05/05 01:13:55;;;;;;;21.77;15.95;;;;;;;6.97;67.47;97424.69;1585810;90;26255;-75
2022/05/05 01:16:23;;;;;;;23.60;15.78;;;;;;;6.98;67.64;97425.01;1585845;90;26880;-76
2022/05/05 01:18:55;;;;;;;26.07;17.60;;;;;;;6.99;67.69;97423.99;1585796;90;25962;-76
2022/05/05 01:21:21;;;;;;;30.30;17.32;;;;;;;6.99;67.78;97419.97;1583015;90;27540;-76
2022/05/05 01:23:48;;;;;;;35.40;20.62;;;;;;;7.00;67.86;97420.29;1586055;90;25761;-76
2022/05/05 01:29:01;;;;;;;31.12;19.42;;;;;;;6.95;68.17;97421.35;1585961;90;26804;-76
2022/05/05 01:31:28;;;;;;;29.23;20.35;;;;;;;6.91;68.29;97426.77;1586145;90;25370;-76
2022/05/05 01:33:55;;;;;;;28.23;19.05;;;;;;;6.93;68.37;97424.73;1586205;90;27389;-75
2022/05/05 01:36:21;;;;;;;24.12;16.90;;;;;;;6.92;68.48;97420.38;1585853;90;25812;-75
2022/05/05 01:38:48;;;;;;;25.30;16.55;;;;;;;6.95;68.51;97424.87;1593849;88;25866;-76
2022/05/05 01:41:15;;;;;;;22.90;16.05;;;;;;;6.96;68.49;97421.16;1612851;88;26940;-76
2022/05/05 01:43:44;;;;;;;24.47;16.37;;;;;;;6.97;68.51;97426.02;1612797;88;25839;-75
2022/05/05 01:46:11;;;;;;;22.00;17.42;;;;;;;6.99;68.56;97429.36;1675708;84;27516;-75
2022/05/05 01:48:38;;;;;;;26.00;17.65;;;;;;;7.00;68.65;97424.31;1704586;84;25751;-76
2022/05/05 01:51:05;;;;;;;30.55;17.82;;;;;;;7.00;68.69;97427.00;1704615;84;25783;-76
2022/05/05 01:53:38;;;;;;;25.45;17.45;;;;;;;7.02;68.74;97428.45;1704778;83;25981;-75
2022/05/05 01:56:13;;;;;;;26.02;18.40;;;;;;;7.06;68.87;97428.91;1704869;83;25691;-75
2022/05/05 01:58:44;;;;;;;27.20;17.60;;;;;;;7.09;68.95;97429.89;1704806;84;27997;-75
2022/05/05 02:01:12;;;;;;;22.52;15.80;;;;;;;7.12;68.99;97424.15;1704834;84;25763;-74
2022/05/05 02:03:39;;;;;;;20.55;15.95;;;;;;;7.16;69.03;97425.41;1704780;84;25829;-75
2022/05/05 02:06:07;;;;;;;26.33;18.10;;;;;;;7.19;69.07;97421.84;1704713;84;25715;-75
2022/05/05 02:08:33;;;;;;;29.23;19.55;;;;;;;7.21;69.15;97423.00;1704853;83;25422;-76
2022/05/05 02:11:00;;;;;;;30.82;22.87;;;;;;;7.23;69.16;97423.14;1704594;84;28088;-76
2022/05/05 02:13:27;;;;;;;31.82;23.80;;;;;;;7.25;69.27;97421.58;1704393;84;25702;-76
2022/05/05 02:15:54;;;;;;;37.60;26.48;;;;;;;7.28;69.41;97421.72;1704786;83;25244;-76
2022/05/05 02:18:20;;;;;;;30.95;20.95;;;;;;;7.31;69.39;97426.21;1704680;82;26734;-76
2022/05/05 02:20:47;;;;;;;27.45;20.27;;;;;;;7.33;69.38;97424.17;1641786;86;25873;-76
2022/05/05 02:23:15;;;;;;;26.05;18.55;;;;;;;7.37;69.36;97420.57;1670374;85;28371;-75
2022/05/05 02:25:42;;;;;;;28.85;19.45;;;;;;;7.37;69.37;97422.75;1670351;85;25952;-77
2022/05/05 02:28:08;;;;;;;26.23;19.23;;;;;;;7.39;69.39;97423.39;1670478;85;25723;-76
2022/05/05 02:30:35;;;;;;;48.10;30.02;;;;;;;7.41;69.44;97417.33;1670597;85;26495;-76
2022/05/05 02:33:02;;;;;;;49.95;31.50;;;;;;;7.41;69.45;97423.20;1670497;84;25688;-77
2022/05/05 02:35:28;;;;;;;44.60;30.90;;;;;;;7.42;69.47;97421.67;1670453;85;27453;-77
2022/05/05 02:40:41;;;;;;;29.05;19.75;;;;;;;7.44;69.65;97424.17;1670344;85;25274;-75
2022/05/05 02:43:08;;;;;;;27.65;19.23;;;;;;;7.45;69.66;97425.84;1670496;85;26718;-76
2022/05/05 02:45:35;;;;;;;25.92;20.05;;;;;;;7.47;69.72;97421.11;1670543;85;25737;-76
2022/05/05 02:48:04;;;;;;;26.20;19.35;;;;;;;7.48;69.79;97416.89;1670361;85;27363;-76
2022/05/05 02:50:31;;;;;;;26.55;19.80;;;;;;;7.47;69.91;97414.41;1641637;87;25727;-75
2022/05/05 02:52:58;;;;;;;30.43;20.20;;;;;;;7.43;70.07;97417.97;1641864;87;25756;-76
2022/05/05 02:55:24;;;;;;;28.02;20.68;;;;;;;7.43;70.16;97417.97;1670434;85;25979;-76
2022/05/05 02:57:52;;;;;;;29.50;19.77;;;;;;;7.44;70.25;97422.83;1670610;85;25761;-76
2022/05/05 03:00:20;;;;;;;26.70;18.77;;;;;;;7.47;70.33;97415.23;1670349;85;27436;-76
2022/05/05 03:02:47;;;;;;;23.95;18.17;;;;;;;7.51;70.37;97418.34;1670278;85;25846;-75
2022/05/05 03:05:14;;;;;;;24.52;16.82;;;;;;;7.53;70.43;97418.48;1670537;84;25822;-77
2022/05/05 03:07:44;;;;;;;24.60;18.15;;;;;;;7.56;70.40;97419.95;1670571;85;26767;-75
2022/05/05 03:10:12;;;;;;;26.48;17.90;;;;;;;7.57;70.43;97425.66;1641545;87;26010;-75
2022/05/05 03:12:38;;;;;;;27.58;17.77;;;;;;;7.59;70.45;97424.95;1641694;87;27386;-75
2022/05/05 03:15:07;;;;;;;30.43;19.23;;;;;;;7.61;70.53;97430.94;1641590;86;25847;-77
2022/05/05 03:17:35;;;;;;;28.27;18.90;;;;;;;7.62;70.71;97429.92;1641758;87;25796;-77
2022/05/05 03:20:03;;;;;;;26.48;18.75;;;;;;;7.64;70.80;97432.42;1670455;84;26020;-75
2022/05/05 03:22:29;;;;;;;28.35;19.02;;;;;;;7.67;70.92;97434.73;1670371;85;25707;-75
2022/05/05 03:24:56;;;;;;;23.42;17.70;;;;;;;7.71;70.89;97437.36;1670561;85;27367;-76
2022/05/05 03:27:23;;;;;;;26.40;18.52;;;;;;;7.72;71.08;97427.77;1670364;85;25700;-76
2022/05/05 03:29:50;;;;;;;23.30;17.73;;;;;;;7.73;71.11;97428.60;1670399;85;25226;-76
2022/05/05 03:32:16;;;;;;;27.37;18.52;;;;;;;7.75;71.14;97431.39;1670431;85;25979;-76
2022/05/05 03:34:43;;;;;;;23.55;17.02;;;;;;;7.80;71.11;97434.85;1670611;84;25751;-76
2022/05/05 03:37:10;;;;;;;20.92;17.37;;;;;;;7.84;71.09;97441.00;1670440;85;27354;-76
2022/05/05 03:39:36;;;;;;;28.12;18.98;;;;;;;7.88;71.16;97434.70;1641872;87;25283;-77
2022/05/05 03:42:04;;;;;;;43.45;36.93;;;;;;;7.93;71.21;97439.00;1670592;84;25776;-76
2022/05/05 03:44:31;;;;;;;41.08;30.30;;;;;;;7.97;71.18;97440.25;1670487;85;26690;-75
2022/05/05 03:46:57;;;;;;;41.28;33.25;;;;;;;7.97;71.22;97445.63;1670655;85;25770;-75
2022/05/05 03:49:24;;;;;;;52.33;41.40;;;;;;;7.94;71.27;97448.73;1670635;85;28302;-75
2022/05/05 03:51:50;;;;;;;52.45;39.90;;;;;;;7.91;71.30;97446.42;1670588;85;25708;-76
2022/05/05 03:54:17;;;;;;;56.25;44.25;;;;;;;7.93;71.36;97444.38;1670765;85;25731;-75
2022/05/05 03:56:44;;;;;;;55.83;47.03;;;;;;;7.97;71.37;97457.73;1670631;85;25965;-77
2022/05/05 03:59:10;;;;;;;50.30;42.98;;;;;;;7.99;71.48;97454.34;1670686;84;25659;-76
2022/05/05 04:01:37;;;;;;;48.35;36.75;;;;;;;7.99;71.49;97454.34;1670732;85;27360;-76
2022/05/05 04:04:04;;;;;;;50.90;41.25;;;;;;;8.03;71.50;97462.34;1670618;85;25485;-75
2022/05/05 04:06:31;;;;;;;48.48;40.50;;;;;;;8.06;71.59;97459.79;1670581;85;25809;-75
2022/05/05 04:08:57;;;;;;;55.92;44.03;;;;;;;8.09;71.48;97459.41;1670603;85;25996;-76
2022/05/05 04:11:24;;;;;;;59.33;46.85;;;;;;;8.12;71.47;97459.83;1670788;84;25726;-76
2022/05/05 04:13:51;;;;;;;53.83;45.65;;;;;;;8.17;71.46;97464.13;1670624;85;28148;-75
2022/05/05 04:16:18;;;;;;;61.90;49.20;;;;;;;8.23;71.45;97463.33;1670678;85;25716;-78
2022/05/05 04:18:44;;;;;;;60.80;49.67;;;;;;;8.27;71.50;97462.44;1670647;84;25705;-77
2022/05/05 04:21:11;;;;;;;52.60;42.48;;;;;;;8.28;71.60;97464.94;1670626;85;26293;-76
2022/05/05 04:23:38;;;;;;;53.08;44.67;;;;;;;8.30;71.60;97465.58;1670347;85;25767;-76
2022/05/05 04:26:06;;;;;;;51.23;43.08;;;;;;;8.34;71.68;97463.33;1670779;85;27366;-77
2022/05/05 04:28:33;;;;;;;50.98;41.00;;;;;;;8.39;72.04;97457.38;1670411;85;25727;-76
2022/05/05 04:31:00;;;;;;;58.23;42.27;;;;;;;8.40;72.03;97455.01;1670759;85;25857;-76
2022/05/05 04:33:26;;;;;;;48.28;37.40;;;;;;;8.46;72.13;97458.24;1670677;84;26772;-76
2022/05/05 04:35:54;;;;;;;50.60;37.45;;;;;;;8.51;72.09;97461.19;1670532;85;25771;-75
2022/05/05 04:38:21;;;;;;;46.55;33.08;;;;;;;8.57;72.12;97458.52;1670530;84;27417;-76
2022/05/05 04:40:49;;;;;;;43.92;27.80;;;;;;;8.66;72.11;97467.30;1670334;85;25766;-76
2022/05/05 04:43:16;;;;;;;39.13;26.55;;;;;;;8.73;72.07;97471.36;1670423;85;25786;-75
2022/05/05 04:45:43;;;;;;;31.25;22.05;;;;;;;8.80;72.10;97468.20;1670629;84;25996;-75
2022/05/05 04:48:10;;;;;;;33.70;21.48;;;;;;;8.87;72.23;97474.45;1670337;85;25716;-76
2022/05/05 04:50:37;;;;;;;28.45;20.23;;;;;;;8.92;72.05;97467.45;1670202;85;28241;-76
2022/05/05 04:53:03;;;;;;;27.58;19.82;;;;;;;8.98;71.96;97465.80;1670416;84;25716;-76
2022/05/05 04:55:30;;;;;;;29.65;20.82;;;;;;;9.07;71.90;97471.84;1670453;85;25768;-77
2022/05/05 04:57:57;;;;;;;26.85;19.70;;;;;;;9.15;72.10;97472.52;1670621;84;25969;-76
2022/05/05 05:00:23;;;;;;;30.27;21.85;;;;;;;9.23;71.99;97471.51;1658354;84;25822;-77
2022/05/05 05:02:50;;;;;;;29.70;20.48;;;;;;;9.32;71.96;97472.98;1635832;87;27397;-75
2022/05/05 05:05:16;;;;;;;34.23;21.85;;;;;;;9.42;71.96;97473.43;1643284;85;26478;-77
2022/05/05 05:07:43;;;;;;;39.00;23.87;;;;;;;9.50;72.09;97473.27;1615589;88;25774;-76
2022/05/05 05:10:11;;;;;;;40.70;23.95;;;;;;;9.58;72.12;97471.73;1643419;87;26777;-75
2022/05/05 05:12:37;;;;;;;37.13;23.02;;;;;;;9.68;72.23;97475.38;1615913;88;25837;-77
2022/05/05 05:15:06;;;;;;;36.63;23.98;;;;;;;9.77;72.25;97474.69;1676191;84;27554;-77
2022/05/05 05:17:32;;;;;;;43.70;24.25;;;;;;;9.85;72.31;97474.48;1643104;87;25750;-77
2022/05/05 05:20:00;;;;;;;34.73;22.58;;;;;;;9.93;72.29;97470.23;1643315;87;26450;-76
2022/05/05 05:22:26;;;;;;;44.93;23.62;;;;;;;10.00;72.24;97473.27;1643374;86;26007;-76
2022/05/05 05:24:53;;;;;;;39.23;22.95;;;;;;;10.09;72.14;97475.23;1643287;87;25699;-76
2022/05/05 05:27:19;;;;;;;33.02;22.17;;;;;;;10.18;72.08;97479.91;1615635;88;26821;-76
2022/05/05 05:29:46;;;;;;;42.75;23.98;;;;;;;10.25;72.02;97474.88;1643207;86;25787;-76
2022/05/05 05:32:13;;;;;;;34.27;23.55;;;;;;;10.34;71.99;97474.97;1643052;87;25732;-76
2022/05/05 05:34:40;;;;;;;44.77;25.57;;;;;;;10.44;71.91;97479.42;1643038;87;26048;-76
2022/05/05 05:37:07;;;;;;;37.67;23.90;;;;;;;10.52;71.96;97478.88;1643231;87;25846;-77
2022/05/05 05:39:33;;;;;;;38.15;24.87;;;;;;;10.61;72.02;97476.30;1615405;88;27604;-76
2022/05/05 05:42:00;;;;;;;40.90;24.77;;;;;;;10.69;72.02;97474.72;1643244;85;25865;-75
2022/05/05 05:44:27;;;;;;;42.33;25.10;;;;;;;10.79;72.07;97477.81;1643200;85;25768;-76
2022/05/05 05:46:53;;;;;;;49.40;24.30;;;;;;;10.87;72.05;97480.28;1615457;88;26034;-76
2022/05/05 05:49:20;;;;;;;36.10;23.25;;;;;;;10.94;72.03;97473.53;1643319;87;25585;-76
2022/05/05 05:51:47;;;;;;;38.65;23.77;;;;;;;11.02;71.89;97478.17;1643358;87;28265;-76
2022/05/05 05:54:13;;;;;;;35.10;23.32;;;;;;;11.13;71.87;97473.45;1615309;88;25843;-77
2022/05/05 05:56:40;;;;;;;44.67;23.73;;;;;;;11.24;71.74;97473.83;1643236;85;25712;-76
2022/05/05 05:59:07;;;;;;;31.90;21.48;;;;;;;11.35;71.72;97475.89;1643269;87;26747;-76
2022/05/05 06:04:19;;;;;;;29.92;20.40;;;;;;;11.60;71.68;97476.78;1643061;86;27536;-76
2022/05/05 06:06:45;;;;;;;33.33;20.88;;;;;;;11.72;71.40;97476.41;1643182;87;25214;-76
2022/05/05 06:09:13;;;;;;;24.47;15.72;;;;;;;11.85;71.27;97483.64;1615580;88;25777;-76
2022/05/05 06:11:40;;;;;;;21.85;15.13;;;;;;;11.97;71.07;97477.02;1642916;87;26021;-76
2022/05/05 06:14:07;;;;;;;25.08;16.25;;;;;;;12.10;70.94;97474.22;1643311;86;25686;-77
2022/05/05 06:16:33;;;;;;;18.23;14.33;;;;;;;12.21;70.64;97478.40;1637778;87;27554;-76
2022/05/05 06:19:00;;;;;;;21.33;14.58;;;;;;;12.34;70.50;97482.88;1609595;89;25696;-77
2022/05/05 06:21:27;;;;;;;14.50;12.40;;;;;;;12.47;70.34;97486.84;1623034;88;25793;-77
2022/05/05 06:23:53;;;;;;;16.25;11.65;;;;;;;12.58;69.96;97484.76;1622932;88;26147;-77
2022/05/05 06:26:21;;;;;;;15.90;12.63;;;;;;;12.68;69.71;97472.61;1622918;88;26510;-77
2022/05/05 06:28:48;;;;;;;15.90;12.18;;;;;;;12.81;69.54;97473.81;1672237;85;27501;-76
2022/05/05 06:31:16;;;;;;;16.52;13.15;;;;;;;12.91;69.30;97472.80;1637093;87;25730;-76
2022/05/05 06:33:43;;;;;;;20.72;13.95;;;;;;;13.03;69.12;97473.71;1609586;87;26164;-76
2022/05/05 06:36:10;;;;;;;20.80;15.90;;;;;;;13.13;68.88;97464.52;1609390;89;26091;-77
2022/05/05 06:38:36;;;;;;;18.48;14.80;;;;;;;13.24;68.89;97466.50;1609330;89;25998;-76
2022/05/05 06:41:03;;;;;;;16.05;13.15;;;;;;;13.34;68.79;97465.44;1609528;89;27448;-76
2022/05/05 06:43:30;;;;;;;14.10;11.03;;;;;;;13.46;68.85;97461.96;1609536;88;25506;-77
2022/05/05 06:45:56;;;;;;;20.82;11.38;;;;;;;13.59;68.54;97461.79;1609653;88;25730;-76
2022/05/05 06:48:23;;;;;;;14.95;11.22;;;;;;;13.70;68.18;97466.44;1609634;89;25478;-77
2022/05/05 06:50:49;;;;;;;14.58;11.25;;;;;;;13.82;68.19;97467.31;1609673;89;25717;-76
2022/05/05 06:53:16;;;;;;;16.35;11.30;;;;;;;13.92;67.70;97468.11;1623095;88;27392;-75
2022/05/05 06:55:42;;;;;;;13.28;10.80;;;;;;;14.02;67.48;97467.01;1622046;88;25291;-76
2022/05/05 06:58:11;;;;;;;13.53;9.88;;;;;;;14.15;67.30;97467.34;1622004;88;25783;-75
2022/05/05 07:03:22;;;;;;;12.18;9.38;;;;;;;14.39;66.55;97466.33;1542046;93;25949;-74
2022/05/05 07:05:49;;;;;;;13.38;10.05;;;;;;;14.51;66.39;97464.48;1542145;93;28207;-76
2022/05/05 07:08:16;;;;;;;9.85;8.00;;;;;;;14.62;66.05;97470.45;1541662;93;25860;-77
2022/05/05 07:10:55;;;;;;;11.38;9.48;;;;;;;14.71;65.51;97462.27;1522407;92;26928;-77
2022/05/05 07:13:24;;;;;;;9.93;8.43;;;;;;;14.81;65.46;97462.20;1559442;91;26943;-76
2022/05/05 07:15:51;;;;;;;10.60;7.92;;;;;;;14.95;65.32;97462.27;1549355;91;25567;-76
2022/05/05 07:18:18;;;;;;;11.95;8.20;;;;;;;15.07;65.09;97459.00;1504924;95;27294;-77
2022/05/05 07:20:45;;;;;;;13.93;8.30;;;;;;;15.23;64.70;97458.25;1504782;95;25885;-76
2022/05/05 07:23:12;;;;;;;13.30;8.78;;;;;;;15.35;64.53;97459.05;1504892;95;25843;-76
2022/05/05 07:25:43;;;;;;;8.20;6.85;;;;;;;15.50;64.51;97464.80;1545682;91;26924;-76
2022/05/05 07:28:10;;;;;;;10.18;7.47;;;;;;;15.66;63.86;97463.80;1578593;90;25863;-78
2022/05/05 07:30:36;;;;;;;9.88;7.55;;;;;;;15.85;63.52;97458.44;1551483;92;28216;-76
2022/05/05 07:33:05;;;;;;;7.87;7.05;;;;;;;16.06;63.35;97452.85;1551432;92;25925;-77
2022/05/05 07:35:32;;;;;;;6.67;5.97;;;;;;;16.25;62.67;97458.89;1544649;92;25959;-77
2022/05/05 07:37:59;;;;;;;7.97;5.95;;;;;;;16.44;62.32;97450.76;1582316;90;26108;-77
2022/05/05 07:40:25;;;;;;;8.80;6.12;;;;;;;16.82;61.96;97449.49;1582426;90;25942;-79
2022/05/05 07:42:52;;;;;;;7.03;5.50;;;;;;;17.32;61.37;97445.83;1582270;90;27610;-77
2022/05/05 07:45:19;;;;;;;8.98;6.20;;;;;;;17.83;60.85;97446.47;1582493;90;25823;-79
2022/05/05 07:47:46;;;;;;;7.53;6.03;;;;;;;18.31;60.30;97445.58;1582493;90;25850;-78
2022/05/05 07:50:13;;;;;;;8.58;5.35;;;;;;;18.73;59.40;97441.56;1582607;90;26146;-78
2022/05/05 07:52:40;;;;;;;8.13;5.30;;;;;;;19.13;58.87;97442.92;1582289;90;25852;-76
2022/05/05 07:55:08;;;;;;;8.35;5.55;;;;;;;19.48;57.94;97439.54;1582543;90;28129;-76
2022/05/05 07:57:47;;;;;;;7.90;5.15;;;;;;;19.85;57.27;97444.91;1589740;89;25563;-78
2022/05/05 08:00:15;;;;;;;7.15;4.72;;;;;;;20.22;56.77;97442.80;1652525;86;25834;-78
2022/05/05 08:02:42;;;;;;;7.95;4.95;;;;;;;20.48;55.81;97444.50;1652653;86;26005;-76
2022/05/05 08:05:12;;;;;;;5.00;4.50;;;;;;;20.77;55.25;97450.81;1652474;86;25768;-76
2022/05/05 08:07:44;;;;;;;7.72;4.78;;;;;;;21.09;54.53;97444.45;1652614;86;27419;-78
2022/05/05 08:10:11;;;;;;;4.67;3.92;;;;;;;21.38;53.78;97445.20;1619721;88;25517;-77
2022/05/05 08:12:38;;;;;;;5.47;3.80;;;;;;;21.68;53.12;97446.48;1624042;88;25744;-77
2022/05/05 08:15:07;;;;;;;4.40;3.90;;;;;;;22.03;52.43;97444.12;1619807;88;26172;-78
2022/05/05 08:17:34;;;;;;;4.30;3.90;;;;;;;22.32;51.33;97440.66;1650296;86;25766;-76
2022/05/05 08:20:04;;;;;;;4.83;4.37;;;;;;;22.59;50.93;97439.05;1650571;86;27443;-74
2022/05/05 08:22:31;;;;;;;4.35;3.55;;;;;;;23.02;50.67;97439.27;1650754;86;25319;-75
2022/05/05 08:30:20;;;;;;;5.30;4.28;;;;;;;24.08;47.79;97442.70;1585071;90;25775;-75
2022/05/05 08:32:46;;;;;;;6.35;5.30;;;;;;;24.35;47.32;97436.55;1585164;90;28186;-75
2022/05/05 08:35:13;;;;;;;5.00;4.33;;;;;;;24.65;46.86;97432.47;1584963;90;25805;-75
2022/05/05 08:37:39;;;;;;;4.90;4.10;;;;;;;24.69;46.09;97438.48;1585041;90;25824;-75
2022/05/05 08:42:40;;;;;;;4.53;3.22;;;;;;;24.40;45.01;97431.76;1473701;97;25810;-74
2022/05/05 08:45:08;;;;;;;5.30;2.87;;;;;;;23.99;44.64;97430.14;1473777;97;27416;-75
2022/05/05 08:47:36;;;;;;;5.05;3.35;;;;;;;23.62;44.53;97430.91;1473671;97;26076;-75
2022/05/05 08:50:04;;;;;;;4.40;3.35;;;;;;;23.31;44.33;97434.53;1473773;97;25841;-74
2022/05/05 08:52:49;;;;;;;5.65;3.30;;;;;;;22.95;43.72;97433.26;1473809;97;26753;-74
2022/05/05 08:55:18;;;;;;;3.33;3.02;;;;;;;22.36;44.15;97432.91;1473892;97;25830;-74
2022/05/05 08:57:45;;;;;;;4.37;3.40;;;;;;;21.76;44.35;97440.39;1473871;97;27410;-74
2022/05/05 09:00:15;;;;;;;3.90;3.50;;;;;;;21.38;44.88;97438.34;1480360;95;26007;-74
2022/05/05 09:02:46;;;;;;;4.72;3.42;;;;;;;21.18;45.39;97440.58;1492235;96;25863;-74
2022/05/05 09:05:12;;;;;;;4.33;3.25;;;;;;;21.08;45.53;97444.17;1492242;94;26839;-75
2022/05/05 09:07:52;;;;;;;4.58;3.27;;;;;;;21.01;45.66;97442.25;1542512;91;25753;-74
2022/05/05 09:10:22;;;;;;;5.33;3.05;;;;;;;20.94;45.38;97446.39;1565993;91;27653;-77
2022/05/05 09:13:02;;;;;;;3.80;3.10;;;;;;;20.67;45.67;97450.25;1565926;91;26066;-76
2022/05/05 09:15:34;;;;;;;5.00;3.55;;;;;;;20.67;45.67;97450.25;1565212;91;25808;-76
2022/05/05 09:18:25;;;;;;;3.85;3.45;;;;;;;21.16;45.77;97440.85;1551742;92;26026;-78
2022/05/05 09:20:52;;;;;;;3.75;3.40;;;;;;;21.83;44.88;97445.05;1551682;92;25767;-77
2022/05/05 09:26:30;;;;;;;4.35;3.40;;;;;;;22.63;44.54;97436.55;1551876;92;25784;-77
2022/05/05 09:28:58;;;;;;;4.42;2.87;;;;;;;23.51;44.22;97436.84;1551976;92;25828;-79
2022/05/05 09:31:25;;;;;;;6.28;3.77;;;;;;;23.92;43.12;97442.08;1551868;92;26657;-78
2022/05/05 09:33:52;;;;;;;3.33;2.90;;;;;;;23.90;42.54;97438.83;1561508;91;25732;-79
2022/05/05 09:36:27;;;;;;;7.45;4.55;;;;;;;23.84;42.67;97435.86;1573973;91;27562;-76
2022/05/05 09:39:03;;;;;;;4.50;3.55;;;;;;;24.15;43.01;97445.89;1575709;90;26007;-76
2022/05/05 09:41:34;;;;;;;9.00;5.12;;;;;;;24.17;42.26;97440.08;1577160;90;25857;-75
2022/05/05 09:44:18;;;;;;;4.92;4.05;;;;;;;23.55;42.29;97446.95;1577052;90;26070;-75
2022/05/05 09:46:44;;;;;;;5.53;3.50;;;;;;;23.00;42.49;97451.11;1572366;89;25820;-77
2022/05/05 09:49:16;;;;;;;3.83;3.42;;;;;;;22.36;42.90;97449.41;1570980;91;27629;-77
2022/05/05 09:57:43;;;;;;;7.72;4.87;;;;;;;20.98;46.22;97460.66;1653272;86;25994;-76
2022/05/05 10:05:52;;;;;;;5.95;4.45;;;;;;;20.63;49.72;97467.55;1653790;85;33063;-77
2022/05/05 10:08:30;;;;;;;3.58;3.27;;;;;;;21.27;51.08;97455.40;1654028;86;25747;-78
2022/05/05 10:10:58;;;;;;;5.28;4.40;;;;;;;21.88;50.86;97455.17;1661982;86;26068;-76
2022/05/05 10:13:30;;;;;;;4.00;3.27;;;;;;;22.45;50.74;97452.39;1662201;86;25792;-76
2022/05/05 10:16:00;;;;;;;6.25;3.60;;;;;;;22.91;49.82;97456.98;1662400;85;29967;-77
2022/05/05 10:18:30;;;;;;;4.58;3.50;;;;;;;23.29;49.41;97454.69;1660184;86;25768;-77
2022/05/05 10:20:58;;;;;;;4.62;3.08;;;;;;;23.65;48.82;97459.27;1638289;86;25942;-76
2022/05/05 10:23:44;;;;;;;7.33;4.62;;;;;;;23.94;47.78;97449.50;1637313;87;26100;-77
2022/05/05 10:26:13;;;;;;;7.67;4.05;;;;;;;24.08;47.21;97451.53;1637407;87;25518;-75
2022/05/05 10:28:47;;;;;;;4.80;4.25;;;;;;;23.91;47.02;97452.84;1637306;86;27424;-74
2022/05/05 10:31:35;;;;;;;5.65;4.33;;;;;;;23.68;46.74;97453.69;1610586;89;25991;-73
2022/05/05 10:34:09;;;;;;;5.12;3.35;;;;;;;23.44;46.73;97443.20;1610392;89;25859;-74
2022/05/05 10:36:37;;;;;;;4.90;4.17;;;;;;;23.16;46.18;97448.48;1610631;89;26026;-75
2022/05/05 10:39:23;;;;;;;5.08;3.75;;;;;;;22.95;46.69;97444.27;1589040;89;26548;-74
2022/05/05 10:41:53;;;;;;;6.22;3.50;;;;;;;22.80;46.86;97438.38;1610501;89;27446;-75
2022/05/05 10:44:26;;;;;;;9.05;3.58;;;;;;;22.78;46.88;97438.39;1610420;88;25382;-75
2022/05/05 10:46:57;;;;;;;3.20;2.98;;;;;;;22.63;46.77;97442.05;1610673;89;25773;-75
2022/05/05 10:49:41;;;;;;;3.70;3.27;;;;;;;22.46;46.33;97442.45;1610565;89;26071;-74
2022/05/05 10:52:18;;;;;;;4.85;2.90;;;;;;;22.31;46.09;97443.96;1610608;89;25899;-75
2022/05/05 10:54:47;;;;;;;4.45;3.08;;;;;;;22.12;46.39;97452.59;1610306;89;28168;-77
2022/05/05 10:57:31;;;;;;;3.72;3.22;;;;;;;21.96;46.61;97449.10;1610381;89;25895;-76
2022/05/05 11:00:13;;;;;;;4.05;3.00;;;;;;;21.83;46.76;97456.58;1610634;89;25720;-77
2022/05/05 11:03:02;;;;;;;4.90;3.67;;;;;;;21.64;47.10;97460.50;1579533;90;26109;-77
2022/05/05 11:05:38;;;;;;;8.50;4.37;;;;;;;20.76;47.49;97465.63;1604863;89;25854;-75
2022/05/05 11:08:10;;;;;;;4.70;3.55;;;;;;;20.52;48.49;97490.03;1598834;89;28314;-74
2022/05/05 11:13:39;;;;;;;12.00;4.37;;;;;;;20.15;48.92;97472.39;1595833;89;25865;-76
2022/05/05 11:22:22;;;;;;;6.70;4.03;;;;;;;18.91;52.29;97497.23;1586917;90;27493;-74
2022/05/05 11:24:52;;;;;;;7.20;4.47;;;;;;;18.56;54.34;97499.10;1584484;90;26939;-76
2022/05/05 11:27:21;;;;;;;7.83;4.45;;;;;;;18.33;54.64;97495.34;1588730;90;25912;-74
2022/05/05 11:29:53;;;;;;;6.20;4.83;;;;;;;18.11;55.46;97504.12;1588674;90;26051;-74
2022/05/05 11:32:22;;;;;;;7.97;5.05;;;;;;;17.93;55.99;97510.20;1563489;91;32135;-74
2022/05/05 11:34:50;;;;;;;13.50;8.63;;;;;;;17.80;56.78;97512.50;1563058;91;28417;-74
2022/05/05 11:37:17;;;;;;;11.03;5.35;;;;;;;17.78;57.00;97522.84;1557853;91;25879;-74
2022/05/05 11:39:46;;;;;;;20.92;11.12;;;;;;;17.79;56.65;97527.23;1552980;91;25895;-75
2022/05/05 11:42:13;;;;;;;22.20;12.75;;;;;;;17.84;57.88;97532.77;1548796;91;26820;-74
2022/05/05 11:47:17;;;;;;;7.33;3.60;;;;;;;18.04;57.47;97534.36;1493157;96;27020;-75
2022/05/05 11:49:47;;;;;;;5.08;3.27;;;;;;;18.15;56.87;97530.66;1429383;100;25629;-75
2022/05/05 11:52:22;;;;;;;5.65;3.27;;;;;;;18.31;56.57;97535.75;1422993;99;26670;-74
2022/05/05 11:54:55;;;;;;;4.08;3.50;;;;;;;18.55;56.03;97530.80;1416051;101;26169;-77
2022/05/05 11:57:39;;;;;;;4.80;3.22;;;;;;;18.86;56.16;97538.20;1416164;101;26618;-76
2022/05/05 12:02:56;;;;;;;4.72;3.33;;;;;;;19.54;55.68;97533.80;1416049;100;25829;-77
2022/05/05 12:05:25;;;;;;;4.28;3.37;;;;;;;19.74;55.26;97531.15;1416089;101;25531;-77
2022/05/05 12:07:54;;;;;;;4.58;3.30;;;;;;;20.01;55.51;97531.53;1416176;101;26173;-75
2022/05/05 12:10:24;;;;;;;5.92;3.00;;;;;;;20.20;55.37;97527.75;1411432;101;25852;-76
2022/05/05 12:12:52;;;;;;;4.80;2.92;;;;;;;20.33;55.42;97524.49;1383839;103;27408;-77
2022/05/05 12:15:21;;;;;;;4.58;3.27;;;;;;;20.57;55.68;97526.21;1383731;103;25924;-75
2022/05/05 12:17:52;;;;;;;6.00;3.12;;;;;;;20.83;55.23;97523.77;1383706;103;26099;-75
2022/05/05 12:20:21;;;;;;;4.87;3.10;;;;;;;20.99;53.69;97517.19;1383813;103;26167;-77
2022/05/05 12:23:00;;;;;;;5.75;3.20;;;;;;;20.93;53.04;97512.79;1383555;103;25856;-76
2022/05/05 12:25:27;;;;;;;4.55;3.00;;;;;;;20.84;52.85;97502.09;1383694;103;28333;-76